createdAt,value
2022-12-31T00:00:36.439Z,99931.16
2022-12-31T00:03:06.076Z,99938.63
2022-12-31T00:05:35.601Z,99942.03
2022-12-31T00:08:03.536Z,99937.09
2022-12-31T00:10:30.885Z,99943.03
2022-12-31T00:12:58.032Z,99933.00
2022-12-31T00:15:25.182Z,99938.84
2022-12-31T00:17:52.335Z,99936.53
2022-12-31T00:20:19.507Z,99938.13
2022-12-31T00:22:46.666Z,99945.84
2022-12-31T00:25:13.834Z,99944.13
2022-12-31T00:27:41.029Z,99940.16
2022-12-31T00:30:10.361Z,99937.66
2022-12-31T00:32:37.504Z,99942.00
2022-12-31T00:35:05.700Z,99944.53
2022-12-31T00:37:32.848Z,99954.59
2022-12-31T00:39:59.984Z,99953.72
2022-12-31T00:42:27.152Z,99944.66
2022-12-31T00:44:54.292Z,99953.03
2022-12-31T00:47:21.477Z,99954.59
2022-12-31T00:49:48.612Z,99960.56
2022-12-31T00:52:16.843Z,99968.94
2022-12-31T00:54:44.423Z,99964.06
2022-12-31T00:57:11.559Z,99963.19
2022-12-31T00:59:38.683Z,99963.28
2022-12-31T01:02:05.962Z,99967.38
2022-12-31T01:04:33.419Z,99959.13
2022-12-31T01:07:00.540Z,99957.38
2022-12-31T01:09:27.698Z,99959.97
2022-12-31T01:11:54.835Z,99959.84
2022-12-31T01:14:21.993Z,99964.84
2022-12-31T01:16:52.851Z,99960.72
2022-12-31T01:19:24.867Z,99954.03
2022-12-31T01:21:52.858Z,99960.84
2022-12-31T01:24:20.584Z,99967.34
2022-12-31T01:26:47.725Z,99965.72
2022-12-31T01:29:16.911Z,99970.84
2022-12-31T01:31:44.069Z,99990.88
2022-12-31T01:34:11.223Z,99990.94
2022-12-31T01:36:39.852Z,99981.09
2022-12-31T01:39:08.966Z,99993.81
2022-12-31T01:41:44.986Z,100007.13
2022-12-31T01:44:12.044Z,99996.41
2022-12-31T01:46:51.943Z,99997.25
2022-12-31T01:49:51.340Z,99989.72
2022-12-31T01:52:27.333Z,99999.00
2022-12-31T01:55:05.843Z,99998.19
2022-12-31T01:57:33.682Z,99998.16
2022-12-31T02:00:02.353Z,99995.72
2022-12-31T02:02:29.688Z,99984.91
2022-12-31T02:05:02.531Z,99976.56
2022-12-31T02:07:29.669Z,99983.25
2022-12-31T02:09:57.026Z,99984.13
2022-12-31T02:12:24.210Z,99983.22
2022-12-31T02:14:54.199Z,99986.63
2022-12-31T02:17:30.161Z,99970.75
2022-12-31T02:20:37.387Z,99980.00
2022-12-31T02:23:22.574Z,99979.25
2022-12-31T02:26:18.515Z,99976.63
2022-12-31T02:29:51.351Z,99979.16
2022-12-31T02:32:37.581Z,99970.94
2022-12-31T02:35:08.721Z,99972.56
2022-12-31T02:37:39.474Z,99958.44
2022-12-31T02:40:14.611Z,99960.16
2022-12-31T02:42:41.826Z,99961.88
2022-12-31T02:45:18.151Z,99948.50
2022-12-31T02:48:05.665Z,99958.56
2022-12-31T02:50:55.557Z,99945.25
2022-12-31T02:53:52.446Z,99946.13
2022-12-31T02:56:36.240Z,99936.25
2022-12-31T02:59:38.755Z,99933.72
2022-12-31T03:02:19.507Z,99929.63
2022-12-31T03:04:56.732Z,99930.50
2022-12-31T03:07:31.623Z,99934.84
2022-12-31T03:10:00.852Z,99932.34
2022-12-31T03:12:46.690Z,99926.50
2022-12-31T03:15:23.052Z,99938.31
2022-12-31T03:18:09.170Z,99931.78
2022-12-31T03:21:09.911Z,99934.25
2022-12-31T03:23:43.737Z,99922.59
2022-12-31T03:26:12.320Z,99916.81
2022-12-31T03:28:42.765Z,99909.38
2022-12-31T03:31:10.023Z,99918.63
2022-12-31T03:33:41.202Z,99921.19
2022-12-31T03:36:12.961Z,99911.94
2022-12-31T03:38:41.206Z,99907.84
2022-12-31T03:41:10.983Z,99897.09
2022-12-31T03:43:38.597Z,99902.97
2022-12-31T03:46:06.432Z,99906.38
2022-12-31T03:48:33.713Z,99911.41
2022-12-31T03:51:00.870Z,99916.59
2022-12-31T03:53:27.995Z,99914.00
2022-12-31T03:55:55.579Z,99924.16
2022-12-31T03:58:22.895Z,99912.38
2022-12-31T04:00:50.843Z,99914.91
2022-12-31T04:03:18.638Z,99913.31
2022-12-31T04:05:55.660Z,99901.59
2022-12-31T04:08:23.996Z,99906.72
2022-12-31T04:10:51.186Z,99921.63
2022-12-31T04:13:18.475Z,99916.72
2022-12-31T04:15:45.659Z,99924.19
2022-12-31T04:18:13.176Z,99910.94
2022-12-31T04:20:40.651Z,99915.16
2022-12-31T04:23:07.829Z,99900.19
2022-12-31T04:25:34.971Z,99893.66
2022-12-31T04:28:02.135Z,99873.56
2022-12-31T04:30:29.330Z,99873.72
2022-12-31T04:32:56.519Z,99871.25
2022-12-31T04:35:23.685Z,99852.00
2022-12-31T04:37:50.843Z,99851.34
2022-12-31T04:40:18.091Z,99839.63
2022-12-31T04:42:45.235Z,99842.16
2022-12-31T04:45:12.414Z,99833.72
2022-12-31T04:47:39.618Z,99832.91
2022-12-31T04:50:07.304Z,99833.81
2022-12-31T04:52:40.337Z,99826.38
2022-12-31T04:55:10.920Z,99832.28
2022-12-31T04:57:38.080Z,99824.06
2022-12-31T05:00:06.021Z,99824.91
2022-12-31T05:02:33.303Z,99829.03
2022-12-31T05:05:00.563Z,99827.47
2022-12-31T05:07:27.702Z,99831.59
2022-12-31T05:09:54.823Z,99820.78
2022-12-31T05:12:21.996Z,99832.50
2022-12-31T05:14:49.140Z,99845.13
2022-12-31T05:17:16.293Z,99845.94
2022-12-31T05:19:43.432Z,99843.28
2022-12-31T05:22:29.203Z,99846.50
2022-12-31T05:25:00.686Z,99865.59
2022-12-31T05:27:30.958Z,99875.69
2022-12-31T05:29:58.346Z,99886.34
2022-12-31T05:32:25.926Z,99896.56
2022-12-31T05:34:53.614Z,99908.09
2022-12-31T05:37:20.758Z,99912.16
2022-12-31T05:39:47.943Z,99903.13
2022-12-31T05:42:15.083Z,99886.44
2022-12-31T05:44:42.230Z,99897.38
2022-12-31T05:47:09.531Z,99900.81
2022-12-31T05:49:36.801Z,99895.03
2022-12-31T05:52:04.250Z,99882.59
2022-12-31T05:54:31.402Z,99871.84
2022-12-31T05:56:58.806Z,99886.13
2022-12-31T05:59:25.981Z,99894.63
2022-12-31T06:01:53.108Z,99897.00
2022-12-31T06:04:20.398Z,99909.50
2022-12-31T06:06:47.566Z,99917.81
2022-12-31T06:09:16.989Z,99931.22
2022-12-31T06:11:44.866Z,99947.84
2022-12-31T06:14:12.894Z,99959.44
2022-12-31T06:16:41.439Z,99956.88
2022-12-31T06:19:09.619Z,99947.84
2022-12-31T06:21:36.805Z,99956.09
2022-12-31T06:24:04.319Z,99954.34
2022-12-31T06:26:31.490Z,99949.97
2022-12-31T06:28:58.717Z,99957.41
2022-12-31T06:31:25.893Z,99966.66
2022-12-31T06:33:53.099Z,99982.50
2022-12-31T06:36:21.786Z,99985.84
2022-12-31T06:38:49.022Z,99971.59
2022-12-31T06:41:18.251Z,99964.16
2022-12-31T06:43:46.305Z,99960.78
2022-12-31T06:46:17.619Z,99976.75
2022-12-31T06:48:45.625Z,99969.09
2022-12-31T06:51:18.430Z,99977.28
2022-12-31T06:53:48.244Z,99968.25
2022-12-31T06:56:31.306Z,99989.34
2022-12-31T06:59:01.274Z,99986.44
2022-12-31T07:01:58.476Z,99995.81
2022-12-31T07:04:55.511Z,99981.53
2022-12-31T07:08:08.886Z,99992.94
2022-12-31T07:11:18.435Z,99983.13
2022-12-31T07:13:59.366Z,99980.66
2022-12-31T07:16:36.275Z,99964.56
2022-12-31T07:19:24.982Z,99965.25
2022-12-31T07:21:55.726Z,99974.59
2022-12-31T07:24:23.171Z,99971.31
2022-12-31T07:27:36.895Z,100010.72
2022-12-31T07:30:20.945Z,99974.75
2022-12-31T07:33:33.641Z,100007.56
2022-12-31T07:36:32.165Z,99992.38
2022-12-31T07:39:13.480Z,100016.81
2022-12-31T07:41:59.859Z,99998.94
2022-12-31T07:44:54.759Z,100031.63
2022-12-31T07:47:28.113Z,100001.41
2022-12-31T07:49:57.461Z,99991.13
2022-12-31T07:52:25.275Z,99988.88
2022-12-31T07:54:52.568Z,100000.59
2022-12-31T07:57:23.438Z,100019.94
2022-12-31T08:00:12.959Z,100003.31
2022-12-31T08:03:03.712Z,100011.59
2022-12-31T08:06:04.796Z,100024.69
2022-12-31T08:08:53.837Z,100021.41
2022-12-31T08:11:23.817Z,100028.28
2022-12-31T08:13:54.308Z,100036.69
2022-12-31T08:16:21.978Z,100039.16
2022-12-31T08:18:49.579Z,100038.38
2022-12-31T08:21:35.000Z,100046.69
2022-12-31T08:24:30.027Z,100054.25
2022-12-31T08:27:32.031Z,100041.19
2022-12-31T08:30:14.706Z,100040.94
2022-12-31T08:33:06.473Z,100040.47
2022-12-31T08:35:59.547Z,100045.50
2022-12-31T08:38:36.639Z,100057.25
2022-12-31T08:41:43.356Z,100043.91
2022-12-31T08:44:43.713Z,100048.97
2022-12-31T08:47:41.089Z,100064.03
2022-12-31T08:50:15.912Z,100071.63
2022-12-31T08:52:43.821Z,100080.53
2022-12-31T08:55:19.392Z,100079.56
2022-12-31T08:58:36.756Z,100076.53
2022-12-31T09:01:07.057Z,100069.75
2022-12-31T09:04:11.170Z,100080.50
2022-12-31T09:06:52.776Z,100063.75
2022-12-31T09:09:55.522Z,100064.47
2022-12-31T09:13:01.358Z,100060.63
2022-12-31T09:15:49.713Z,100062.41
2022-12-31T09:18:17.250Z,100048.19
2022-12-31T09:20:45.109Z,100063.91
2022-12-31T09:23:13.358Z,100045.66
2022-12-31T09:26:14.390Z,100045.16
2022-12-31T09:29:10.134Z,100047.22
2022-12-31T09:32:12.017Z,100043.31
2022-12-31T09:35:11.214Z,100045.41
2022-12-31T09:37:50.440Z,100036.41
2022-12-31T09:40:20.627Z,100033.28
2022-12-31T09:43:23.543Z,100039.78
2022-12-31T09:46:33.944Z,100044.16
2022-12-31T09:49:51.221Z,100037.25
2022-12-31T09:52:44.565Z,100032.94
2022-12-31T09:55:32.059Z,100029.22
2022-12-31T09:58:08.009Z,100019.28
2022-12-31T10:00:52.090Z,100025.75
2022-12-31T10:04:15.769Z,100017.91
2022-12-31T10:07:09.255Z,100010.06
2022-12-31T10:09:57.888Z,100014.50
2022-12-31T10:12:47.447Z,100008.72
2022-12-31T10:16:02.314Z,100021.28
2022-12-31T10:18:44.233Z,100018.44
2022-12-31T10:21:48.962Z,100020.00
2022-12-31T10:24:58.971Z,100015.81
2022-12-31T10:27:37.398Z,100015.00
2022-12-31T10:30:21.346Z,100015.91
2022-12-31T10:33:18.047Z,100005.06
2022-12-31T10:36:26.374Z,100006.03
2022-12-31T10:39:20.562Z,100001.88
2022-12-31T10:42:26.372Z,99997.13
2022-12-31T10:45:15.872Z,99995.66
2022-12-31T10:48:05.954Z,99991.69
2022-12-31T10:51:15.305Z,99996.13
2022-12-31T10:54:40.827Z,99986.41
2022-12-31T10:57:19.679Z,99984.09
2022-12-31T11:00:10.148Z,99982.78
2022-12-31T11:02:58.026Z,99971.88
2022-12-31T11:06:17.349Z,99987.94
2022-12-31T11:09:16.190Z,99983.72
2022-12-31T11:26:04.971Z,99979.31
2022-12-31T11:29:16.954Z,99977.69
2022-12-31T11:32:03.296Z,99972.88
2022-12-31T11:35:08.344Z,99977.28
2022-12-31T11:37:51.703Z,99983.13
2022-12-31T11:40:43.695Z,99974.88
2022-12-31T11:43:26.931Z,99996.94
2022-12-31T11:46:19.062Z,99997.91
2022-12-31T11:49:29.749Z,100001.28
2022-12-31T11:52:33.975Z,100007.00
2022-12-31T11:55:38.235Z,100037.31
2022-12-31T11:58:14.980Z,100064.72
2022-12-31T12:01:16.040Z,100103.53
2022-12-31T12:03:44.189Z,100104.84
2022-12-31T12:06:14.827Z,100088.69
2022-12-31T12:08:42.926Z,100092.84
2022-12-31T12:11:30.320Z,100110.34
2022-12-31T12:13:57.859Z,100111.06
2022-12-31T12:16:27.982Z,100114.47
2022-12-31T12:19:06.322Z,100109.59
2022-12-31T12:21:34.454Z,100108.97
2022-12-31T12:24:18.749Z,100109.88
2022-12-31T12:26:46.174Z,100088.03
2022-12-31T12:29:23.030Z,100111.50
2022-12-31T12:32:06.511Z,100103.03
2022-12-31T12:34:36.453Z,100106.31
2022-12-31T12:37:04.392Z,100110.50
2022-12-31T12:39:34.880Z,100111.19
2022-12-31T12:42:03.594Z,100130.41
2022-12-31T12:44:32.273Z,100131.19
2022-12-31T12:47:05.009Z,100115.88
2022-12-31T12:49:40.454Z,100107.41
2022-12-31T12:52:59.531Z,100093.94
2022-12-31T12:56:06.422Z,100102.25
2022-12-31T12:58:50.276Z,100106.41
2022-12-31T13:01:43.229Z,100124.78
2022-12-31T13:04:34.347Z,100143.88
2022-12-31T13:07:25.068Z,100096.97
2022-12-31T13:10:26.103Z,100104.66
2022-12-31T13:13:36.782Z,100091.31
2022-12-31T13:16:22.901Z,100092.22
2022-12-31T13:19:06.668Z,100089.69
2022-12-31T13:21:42.753Z,100090.56
2022-12-31T13:24:34.633Z,100087.28
2022-12-31T13:27:18.669Z,100079.72
2022-12-31T13:29:50.094Z,100075.63
2022-12-31T13:32:24.078Z,100086.59
2022-12-31T13:35:03.048Z,100083.34
2022-12-31T13:37:42.715Z,100084.25
2022-12-31T13:40:29.671Z,100071.94
2022-12-31T13:43:34.543Z,100076.66
2022-12-31T13:46:36.205Z,100077.47
2022-12-31T13:49:31.610Z,100081.97
2022-12-31T13:52:21.663Z,100077.28
2022-12-31T13:55:24.909Z,100078.09
2022-12-31T13:58:14.894Z,100076.66
2022-12-31T14:00:53.859Z,100084.31
2022-12-31T14:03:56.182Z,100076.72
2022-12-31T14:06:45.686Z,100080.03
2022-12-31T14:09:24.091Z,100086.69
2022-12-31T14:12:31.548Z,100085.28
2022-12-31T14:15:14.293Z,100092.97
2022-12-31T14:17:54.783Z,100094.63
2022-12-31T14:20:48.328Z,100091.34
2022-12-31T14:23:58.159Z,100114.84
2022-12-31T14:26:34.145Z,100108.16
2022-12-31T14:29:10.332Z,100104.88
2022-12-31T14:31:59.951Z,100101.56
2022-12-31T14:34:47.431Z,100109.22
2022-12-31T14:37:28.979Z,100101.88
2022-12-31T14:40:51.094Z,100103.44
2022-12-31T14:43:41.518Z,100090.78
2022-12-31T14:46:30.808Z,100080.78
2022-12-31T14:49:47.700Z,100081.59
2022-12-31T14:52:33.020Z,100080.66
2022-12-31T14:55:15.146Z,100084.00
2022-12-31T14:58:25.782Z,100105.69
2022-12-31T15:00:38.120Z,100104.03
2022-12-31T15:03:22.852Z,100104.97
2022-12-31T15:06:07.625Z,100096.78
2022-12-31T15:09:08.277Z,100119.50
2022-12-31T15:12:28.155Z,100139.72
2022-12-31T15:15:44.195Z,100119.63
2022-12-31T15:18:43.847Z,100117.09
2022-12-31T15:21:44.437Z,100134.69
2022-12-31T15:24:30.708Z,100141.31
2022-12-31T15:27:02.960Z,100150.78
2022-12-31T15:29:35.266Z,100151.69
2022-12-31T15:32:17.756Z,100151.88
2022-12-31T15:34:44.877Z,100146.81
2022-12-31T15:38:15.044Z,100161.16
2022-12-31T15:40:52.869Z,100161.19
2022-12-31T15:43:40.623Z,100154.38
2022-12-31T15:46:33.876Z,100144.31
2022-12-31T15:49:18.163Z,100158.63
2022-12-31T15:51:56.185Z,100179.66
2022-12-31T15:54:38.859Z,100154.50
2022-12-31T15:57:15.737Z,100168.16
2022-12-31T15:59:44.695Z,100185.63
2022-12-31T16:02:25.990Z,100178.16
2022-12-31T16:04:55.495Z,100182.13
2022-12-31T16:07:25.745Z,100187.09
2022-12-31T16:10:00.965Z,100188.03
2022-12-31T16:12:44.558Z,100166.28
2022-12-31T16:15:24.330Z,100174.44
2022-12-31T16:18:05.617Z,100186.28
2022-12-31T16:20:40.411Z,100174.50
2022-12-31T16:23:25.977Z,100161.13
2022-12-31T16:25:59.920Z,100156.88
2022-12-31T16:28:33.466Z,100155.97
2022-12-31T16:31:05.735Z,100159.25
2022-12-31T16:33:33.833Z,100169.63
2022-12-31T16:36:01.816Z,100176.00
2022-12-31T16:38:37.504Z,100172.69
2022-12-31T16:41:04.663Z,100177.88
2022-12-31T16:43:43.241Z,100173.47
2022-12-31T16:46:27.317Z,100177.22
2022-12-31T16:49:19.291Z,100177.88
2022-12-31T16:51:47.399Z,100188.09
2022-12-31T16:54:23.655Z,100181.22
2022-12-31T16:56:52.158Z,100184.47
2022-12-31T16:59:34.891Z,100186.28
2022-12-31T17:02:13.386Z,100187.13
2022-12-31T17:04:46.936Z,100181.16
2022-12-31T17:07:27.327Z,100188.59
2022-12-31T17:10:06.370Z,100197.91
2022-12-31T17:13:08.812Z,100197.78
2022-12-31T17:15:39.397Z,100207.06
2022-12-31T17:18:07.720Z,100194.53
2022-12-31T17:20:35.069Z,100197.06
2022-12-31T17:23:09.024Z,100201.19
2022-12-31T17:25:38.169Z,100177.66
2022-12-31T17:28:15.982Z,100193.75
2022-12-31T17:30:43.258Z,100196.97
2022-12-31T17:33:13.277Z,100190.53
2022-12-31T17:35:44.621Z,100190.44
2022-12-31T17:38:18.033Z,100197.09
2022-12-31T17:40:51.717Z,100195.72
2022-12-31T17:43:22.379Z,100194.72
2022-12-31T17:45:54.798Z,100193.16
2022-12-31T17:48:24.884Z,100186.31
2022-12-31T17:50:55.024Z,100190.34
2022-12-31T17:53:23.317Z,100194.50
2022-12-31T17:55:54.472Z,100196.13
2022-12-31T17:58:29.595Z,100198.69
2022-12-31T18:00:59.377Z,100206.22
2022-12-31T18:03:26.646Z,100190.97
2022-12-31T18:05:53.962Z,100199.47
2022-12-31T18:08:21.125Z,100200.25
2022-12-31T18:10:48.597Z,100190.97
2022-12-31T18:13:20.358Z,100191.88
2022-12-31T18:15:47.700Z,100189.34
2022-12-31T18:18:27.349Z,100194.22
2022-12-31T18:21:05.804Z,100186.72
2022-12-31T18:23:46.143Z,100186.41
2022-12-31T18:26:20.487Z,100183.91
2022-12-31T18:28:49.010Z,100179.50
2022-12-31T18:31:21.571Z,100176.06
2022-12-31T18:33:51.239Z,100173.53
2022-12-31T18:36:20.438Z,100172.00
2022-12-31T18:38:48.154Z,100182.84
2022-12-31T18:41:19.826Z,100176.88
2022-12-31T18:43:47.906Z,100186.81
2022-12-31T18:46:22.130Z,100178.34
2022-12-31T18:48:49.508Z,100173.19
2022-12-31T18:51:29.262Z,100170.66
2022-12-31T18:54:02.832Z,100167.66
2022-12-31T18:56:30.029Z,100177.44
2022-12-31T18:58:57.241Z,100171.50
2022-12-31T19:01:32.178Z,100168.03
2022-12-31T19:04:11.195Z,100168.81
2022-12-31T19:06:38.328Z,100165.28
2022-12-31T19:09:13.177Z,100159.56
2022-12-31T19:11:53.088Z,100159.56
2022-12-31T19:14:24.202Z,100157.84
2022-12-31T19:16:54.179Z,100152.66
2022-12-31T19:19:21.945Z,100147.63
2022-12-31T19:21:49.219Z,100152.75
2022-12-31T19:24:21.950Z,100161.09
2022-12-31T19:26:50.253Z,100162.72
2022-12-31T19:29:22.057Z,100157.66
2022-12-31T19:31:49.764Z,100160.19
2022-12-31T19:34:17.188Z,100161.94
2022-12-31T19:36:45.002Z,100149.44
2022-12-31T19:39:21.069Z,100147.75
2022-12-31T19:41:54.772Z,100141.78
2022-12-31T19:44:25.789Z,100146.84
2022-12-31T19:46:52.900Z,100148.50
2022-12-31T19:49:20.085Z,100162.06
2022-12-31T19:51:47.197Z,100148.53
2022-12-31T19:54:14.330Z,100157.81
2022-12-31T19:56:41.540Z,100161.25
2022-12-31T19:59:10.244Z,100168.75
2022-12-31T20:01:38.165Z,100166.34
2022-12-31T20:04:05.528Z,100178.09
2022-12-31T20:06:32.742Z,100165.44
2022-12-31T20:08:59.881Z,100174.53
2022-12-31T20:11:27.450Z,100167.09
2022-12-31T20:13:54.677Z,100164.44
2022-12-31T20:16:26.569Z,100161.09
2022-12-31T20:18:54.039Z,100159.38
2022-12-31T20:21:25.213Z,100158.59
2022-12-31T20:23:53.846Z,100154.34
2022-12-31T20:26:24.144Z,100166.00
2022-12-31T20:28:53.050Z,100181.28
2022-12-31T20:31:24.847Z,100181.25
2022-12-31T20:33:56.507Z,100172.69
2022-12-31T20:36:24.476Z,100174.38
2022-12-31T20:38:52.037Z,100169.25
2022-12-31T20:41:22.576Z,100165.25
2022-12-31T20:43:50.487Z,100169.31
2022-12-31T20:46:27.516Z,100180.25
2022-12-31T20:48:58.846Z,100169.47
2022-12-31T20:51:28.258Z,100182.84
2022-12-31T20:54:07.820Z,100193.88
2022-12-31T20:56:38.622Z,100184.81
2022-12-31T20:59:07.763Z,100179.75
2022-12-31T21:01:55.513Z,100186.50
2022-12-31T21:04:22.558Z,100174.78
2022-12-31T21:06:49.880Z,100197.53
2022-12-31T21:09:17.023Z,100199.94
2022-12-31T21:12:02.746Z,100204.25
2022-12-31T21:14:29.881Z,100205.94
2022-12-31T21:16:57.004Z,100213.53
2022-12-31T21:19:24.108Z,100213.56
2022-12-31T21:21:51.226Z,100217.75
2022-12-31T21:24:23.574Z,100229.38
2022-12-31T21:26:54.753Z,100229.47
2022-12-31T21:29:21.876Z,100238.63
2022-12-31T21:31:49.680Z,100228.69
2022-12-31T21:34:16.809Z,100240.25
2022-12-31T21:36:44.081Z,100241.16
2022-12-31T21:39:11.201Z,100243.72
2022-12-31T21:41:53.645Z,100239.28
2022-12-31T21:44:26.016Z,100232.69
2022-12-31T21:47:36.496Z,100249.50
2022-12-31T21:50:05.087Z,100252.06
2022-12-31T21:52:34.016Z,100241.06
2022-12-31T21:55:23.412Z,100238.44
2022-12-31T21:58:24.861Z,100235.94
2022-12-31T22:00:58.128Z,100251.84
2022-12-31T22:03:27.324Z,100264.31
2022-12-31T22:05:57.445Z,100255.31
2022-12-31T22:08:24.781Z,100255.22
2022-12-31T22:10:53.022Z,100260.38
2022-12-31T22:13:21.583Z,100264.59
2022-12-31T22:16:01.822Z,100260.25
2022-12-31T22:18:33.971Z,100264.50
2022-12-31T22:21:19.719Z,100284.69
2022-12-31T22:23:51.718Z,100270.47
2022-12-31T22:26:24.327Z,100270.47
2022-12-31T22:28:52.179Z,100273.03
2022-12-31T22:31:24.452Z,100277.22
2022-12-31T22:33:52.344Z,100269.94
2022-12-31T22:36:22.345Z,100279.00
2022-12-31T22:38:54.135Z,100279.22
2022-12-31T22:41:23.711Z,100283.25
2022-12-31T22:44:02.279Z,100285.72
2022-12-31T22:46:31.211Z,100290.00
2022-12-31T22:49:00.343Z,100305.31
2022-12-31T22:51:57.578Z,100292.50
2022-12-31T22:54:16.767Z,100315.25
2022-12-31T22:56:44.072Z,100312.00
2022-12-31T22:59:11.427Z,100312.22
2022-12-31T23:01:38.631Z,100315.47
2022-12-31T23:04:05.889Z,100311.28
2022-12-31T23:06:33.165Z,100319.69
2022-12-31T23:09:19.053Z,100318.03
2022-12-31T23:11:46.180Z,100312.25
2022-12-31T23:14:36.114Z,100303.19
2022-12-31T23:17:31.522Z,100313.22
2022-12-31T23:20:19.539Z,100319.34
2022-12-31T23:23:06.537Z,100319.25
2022-12-31T23:25:51.805Z,100320.13
2022-12-31T23:28:24.874Z,100317.59
2022-12-31T23:30:52.415Z,100323.50
2022-12-31T23:33:23.636Z,100318.38
2022-12-31T23:36:01.112Z,100316.63
2022-12-31T23:38:28.275Z,100326.97
2022-12-31T23:40:55.424Z,100331.00
2022-12-31T23:43:22.821Z,100330.22
2022-12-31T23:45:51.104Z,100323.56
2022-12-31T23:48:18.393Z,100324.47
2022-12-31T23:50:53.015Z,100327.94
2022-12-31T23:53:22.821Z,100329.44
2022-12-31T23:55:51.097Z,100331.28
2022-12-31T23:58:18.235Z,100331.94
